Time;durP1;ratioP1;P1;durP2;ratioP2;P2;SDS_P1;SDS_P2;PMS_P1;PMS_P2;Temp;Humidity;BMP_temperature;BMP_pressure;BME280_temperature;BME280_humidity;BME280_pressure;Samples;Min_cycle;Max_cycle;Signal;HPM_P1;HPM_P2
2023/12/26 00:00:26;;;;;;;1.70;0.40;;;;;;;4.94;100.00;99933.59;104752;1262;74866;-57
2023/12/26 00:02:54;;;;;;;2.40;0.40;;;;;;;4.92;100.00;99933.65;104783;1259;60536;-58
2023/12/26 00:05:21;;;;;;;1.50;0.30;;;;;;;4.93;100.00;99942.35;104742;1261;60414;-56
2023/12/26 00:07:49;;;;;;;1.00;0.30;;;;;;;4.96;100.00;99942.26;104939;1260;74371;-60
2023/12/26 00:10:16;;;;;;;1.80;0.40;;;;;;;4.97;100.00;99947.04;104738;1254;66871;-59
2023/12/26 00:12:43;;;;;;;2.70;0.30;;;;;;;4.95;100.00;99952.75;104733;1255;72796;-59
2023/12/26 00:15:10;;;;;;;1.50;0.40;;;;;;;4.92;100.00;99956.40;104596;1255;62049;-56
2023/12/26 00:17:38;;;;;;;2.10;0.30;;;;;;;4.89;100.00;99955.56;104633;1260;60508;-57
2023/12/26 00:20:07;;;;;;;2.30;0.30;;;;;;;4.86;100.00;99949.05;106035;1254;74349;-56
2023/12/26 00:22:37;;;;;;;1.40;0.40;;;;;;;4.82;100.00;99945.80;105275;1263;66248;-59
2023/12/26 00:25:06;;;;;;;3.20;0.30;;;;;;;4.76;100.00;99943.96;105177;1260;72996;-57
2023/12/26 00:27:33;;;;;;;3.10;0.40;;;;;;;4.71;100.00;99936.41;104855;1255;61188;-58
2023/12/26 00:30:00;;;;;;;1.70;0.70;;;;;;;4.68;100.00;99931.69;104587;1257;60428;-58
2023/12/26 00:32:27;;;;;;;4.10;0.30;;;;;;;4.66;100.00;99926.95;104753;1260;73941;-58
2023/12/26 00:34:55;;;;;;;2.00;0.30;;;;;;;4.65;100.00;99932.46;104759;1263;66738;-58
2023/12/26 00:37:22;;;;;;;2.10;0.50;;;;;;;4.65;100.00;99932.46;104761;1259;72715;-58
2023/12/26 00:39:49;;;;;;;3.40;0.40;;;;;;;4.66;100.00;99937.96;104687;1256;60426;-59
2023/12/26 00:42:17;;;;;;;1.70;0.40;;;;;;;4.67;100.00;99943.80;104826;1257;61396;-59
2023/12/26 00:44:44;;;;;;;3.60;0.40;;;;;;;4.66;100.00;99946.31;104521;1259;73093;-59
2023/12/26 00:47:11;;;;;;;1.10;0.30;;;;;;;4.64;100.00;99941.55;104824;1255;67536;-58
2023/12/26 00:49:39;;;;;;;2.70;0.30;;;;;;;4.61;100.00;99936.80;104777;1255;71309;-60
2023/12/26 00:52:07;;;;;;;1.20;0.40;;;;;;;4.57;100.00;99941.16;104968;1254;60549;-59
2023/12/26 00:54:36;;;;;;;3.60;0.40;;;;;;;4.52;100.00;99944.63;105542;1261;60460;-57
2023/12/26 00:57:03;;;;;;;5.70;0.50;;;;;;;4.47;100.00;99945.81;104705;1254;75808;-60
2023/12/26 00:59:31;;;;;;;3.00;0.60;;;;;;;4.42;100.00;99948.04;104847;1257;66777;-57
2023/12/26 01:02:01;;;;;;;2.00;0.30;;;;;;;4.39;100.00;99944.21;105813;1256;71510;-59
2023/12/26 01:04:28;;;;;;;1.80;0.30;;;;;;;4.36;100.00;99938.73;104799;1254;61677;-57
2023/12/26 01:06:56;;;;;;;3.60;0.30;;;;;;;4.35;100.00;99934.85;104805;1259;60441;-57
2023/12/26 01:09:23;;;;;;;2.30;0.70;;;;;;;4.34;100.00;99933.44;104931;1261;73873;-57
2023/12/26 01:11:51;;;;;;;1.00;0.30;;;;;;;4.35;100.00;99930.06;104743;1261;67462;-58
2023/12/26 01:14:18;;;;;;;1.50;0.30;;;;;;;4.34;100.00;99929.54;108820;1258;72927;-58
2023/12/26 01:16:45;;;;;;;3.90;0.30;;;;;;;4.35;100.00;99927.75;109031;1254;60003;-58
2023/12/26 01:19:13;;;;;;;3.70;0.40;;;;;;;4.34;100.00;99929.92;108895;1257;59681;-59
2023/12/26 01:21:41;;;;;;;3.80;0.70;;;;;;;4.30;100.00;99931.77;108876;1257;73890;-59
2023/12/26 01:24:09;;;;;;;1.80;0.40;;;;;;;4.27;100.00;99937.86;108908;1254;66958;-58
2023/12/26 01:26:36;;;;;;;2.90;0.30;;;;;;;4.23;100.00;99933.52;108902;1255;73940;-59
2023/12/26 01:29:04;;;;;;;3.60;0.50;;;;;;;4.20;100.00;99940.48;108663;1253;58855;-57
2023/12/26 01:31:35;;;;;;;2.20;0.70;;;;;;;4.18;100.00;99943.19;108939;1254;60103;-58
2023/12/26 01:34:03;;;;;;;3.20;0.40;;;;;;;4.15;100.00;99942.38;108744;1253;74293;-58
2023/12/26 01:36:30;;;;;;;1.90;0.20;;;;;;;4.15;100.00;99934.21;108076;1254;67698;-56
2023/12/26 01:38:58;;;;;;;1.20;0.40;;;;;;;4.16;100.00;99929.91;104749;1254;72645;-59
2023/12/26 01:41:25;;;;;;;1.90;0.30;;;;;;;4.17;100.00;99934.30;104775;1260;60568;-57
2023/12/26 01:43:52;;;;;;;1.10;0.50;;;;;;;4.19;100.00;99934.98;104648;1256;60435;-60
2023/12/26 01:46:20;;;;;;;2.40;0.40;;;;;;;4.21;100.00;99936.74;104579;1256;74507;-58
2023/12/26 01:48:50;;;;;;;2.50;0.40;;;;;;;4.22;100.00;99940.64;104639;1257;66891;-60
2023/12/26 01:51:18;;;;;;;1.60;0.40;;;;;;;4.21;100.00;99942.08;104621;1260;73609;-58
2023/12/26 01:53:45;;;;;;;9.00;0.80;;;;;;;4.19;100.00;99945.13;107227;1257;61103;-59
2023/12/26 01:56:16;;;;;;;1.70;0.40;;;;;;;4.15;100.00;99942.92;104674;1256;60482;-59
2023/12/26 01:58:45;;;;;;;1.90;0.30;;;;;;;4.10;100.00;99943.70;104292;1267;73177;-60
2023/12/26 02:01:13;;;;;;;1.90;0.40;;;;;;;4.04;100.00;99939.02;105020;1257;66966;-60
2023/12/26 02:03:41;;;;;;;3.00;0.40;;;;;;;3.99;100.00;99930.41;104819;1259;71258;-58
2023/12/26 02:06:09;;;;;;;1.10;0.40;;;;;;;3.95;100.00;99934.40;104783;1261;60540;-58
2023/12/26 02:08:37;;;;;;;1.20;0.30;;;;;;;3.90;100.00;99938.94;104994;1258;60540;-59
2023/12/26 02:11:04;;;;;;;3.20;0.50;;;;;;;3.87;100.00;99939.35;105026;1254;74485;-60
2023/12/26 02:13:33;;;;;;;1.50;0.40;;;;;;;3.85;100.00;99936.55;105079;1259;65830;-57
2023/12/26 02:16:02;;;;;;;2.90;0.40;;;;;;;3.83;100.00;99934.96;104962;1260;71487;-57
2023/12/26 02:18:30;;;;;;;0.70;0.30;;;;;;;3.85;100.00;99935.65;106130;1256;60469;-60
2023/12/26 02:20:57;;;;;;;1.00;0.30;;;;;;;3.87;100.00;99934.55;104750;1254;59711;-59
2023/12/26 02:23:25;;;;;;;1.20;0.30;;;;;;;3.91;100.00;99940.72;105509;1256;74249;-59
2023/12/26 02:25:53;;;;;;;3.60;0.50;;;;;;;3.93;100.00;99939.05;104412;1256;67857;-61
2023/12/26 02:28:20;;;;;;;2.30;0.30;;;;;;;3.92;100.00;99938.71;104709;1256;71516;-60
2023/12/26 02:30:49;;;;;;;1.80;0.40;;;;;;;3.91;100.00;99943.71;104717;1254;60780;-58
2023/12/26 02:33:16;;;;;;;4.00;0.50;;;;;;;3.90;100.00;99953.52;108722;1253;60241;-56
2023/12/26 02:38:30;;;;;;;1.10;0.30;;;;;;;3.79;100.00;100017.04;101381;1297;601340;-58
2023/12/26 02:40:57;;;;;;;1.30;0.40;;;;;;;3.76;100.00;100099.11;103658;1275;62003;-59
2023/12/26 02:43:27;;;;;;;7.00;0.40;;;;;;;3.76;100.00;100075.67;103911;1267;60134;-58
2023/12/26 02:45:54;;;;;;;1.70;0.50;;;;;;;3.77;100.00;100061.10;104300;1264;71043;-59
2023/12/26 02:48:22;;;;;;;4.10;0.40;;;;;;;3.80;100.00;100050.95;104035;1264;66406;-59
2023/12/26 02:50:49;;;;;;;2.90;0.50;;;;;;;3.82;100.00;100047.91;104257;1269;72705;-59
2023/12/26 02:53:17;;;;;;;4.20;0.50;;;;;;;3.84;100.00;100048.39;104327;1261;141606;-58
2023/12/26 02:55:44;;;;;;;1.80;0.40;;;;;;;3.85;100.00;100043.94;104083;1264;61381;-57
2023/12/26 02:58:11;;;;;;;3.40;0.40;;;;;;;3.84;100.00;100045.02;104286;1267;72245;-54
2023/12/26 03:00:38;;;;;;;3.50;0.40;;;;;;;3.83;100.00;100041.33;104498;1264;65707;-54
2023/12/26 03:03:06;;;;;;;4.00;0.50;;;;;;;3.80;100.00;100035.15;104573;1264;72726;-55
2023/12/26 03:05:34;;;;;;;1.50;0.30;;;;;;;3.78;100.00;100027.38;104333;1264;59890;-56
2023/12/26 03:08:01;;;;;;;1.50;0.30;;;;;;;3.74;100.00;100021.91;104810;1263;60075;-53
2023/12/26 03:10:29;;;;;;;1.40;0.30;;;;;;;3.72;100.00;100020.02;104300;1262;71778;-54
2023/12/26 03:12:56;;;;;;;1.00;0.30;;;;;;;3.71;100.00;100012.40;104233;1267;66405;-59
2023/12/26 03:15:24;;;;;;;3.50;0.30;;;;;;;3.72;100.00;100016.48;104579;1263;70900;-53
2023/12/26 03:17:53;;;;;;;2.30;0.40;;;;;;;3.74;100.00;100020.33;104493;1264;59718;-57
2023/12/26 03:20:21;;;;;;;4.10;0.40;;;;;;;3.78;100.00;100025.77;104784;1260;59565;-57
2023/12/26 03:22:48;;;;;;;1.60;0.30;;;;;;;3.79;100.00;100017.59;104354;1260;72993;-55
2023/12/26 03:25:16;;;;;;;4.70;0.70;;;;;;;3.80;100.00;100023.09;104514;1260;66942;-57
2023/12/26 03:27:43;;;;;;;2.10;0.30;;;;;;;3.79;100.00;100023.27;104263;1260;73157;-56
2023/12/26 03:30:11;;;;;;;0.90;0.40;;;;;;;3.77;100.00;100027.38;104431;1263;59686;-59
2023/12/26 03:32:39;;;;;;;1.60;0.40;;;;;;;3.72;100.00;100026.23;104840;1261;60015;-57
2023/12/26 03:35:07;;;;;;;4.80;0.40;;;;;;;3.69;100.00;100023.27;105142;1265;72137;-57
2023/12/26 03:37:34;;;;;;;2.60;0.30;;;;;;;3.65;100.00;100023.86;104346;1261;67525;-56
2023/12/26 03:40:02;;;;;;;3.00;0.50;;;;;;;3.63;100.00;100024.80;104431;1259;73725;-56
2023/12/26 03:42:31;;;;;;;1.00;0.40;;;;;;;3.62;100.00;100016.64;105203;1258;61851;-56
2023/12/26 03:44:59;;;;;;;2.20;0.40;;;;;;;3.61;100.00;100019.66;104273;1259;64213;-56
2023/12/26 03:47:27;;;;;;;2.40;0.30;;;;;;;3.62;100.00;100018.40;104442;1260;73136;-55
2023/12/26 03:49:54;;;;;;;2.40;0.40;;;;;;;3.64;100.00;100019.27;106945;1260;65705;-54
2023/12/26 03:52:22;;;;;;;5.90;0.50;;;;;;;3.66;100.00;100027.57;104343;1259;71124;-54
2023/12/26 03:54:49;;;;;;;2.10;0.40;;;;;;;3.66;100.00;100023.14;104343;1260;59994;-55
2023/12/26 03:57:16;;;;;;;2.00;0.60;;;;;;;3.64;100.00;100019.80;104459;1260;59811;-53
2023/12/26 03:59:45;;;;;;;2.60;0.50;;;;;;;3.63;100.00;100014.48;104809;1260;71842;-52
2023/12/26 04:02:12;;;;;;;1.30;0.40;;;;;;;3.61;100.00;100021.25;105678;1263;65594;-56
2023/12/26 04:04:40;;;;;;;2.00;0.40;;;;;;;3.60;100.00;100026.07;104286;1260;71453;-55
2023/12/26 04:07:08;;;;;;;1.50;0.30;;;;;;;3.58;100.00;100024.52;104086;1261;60373;-54
2023/12/26 04:09:36;;;;;;;3.80;0.40;;;;;;;3.55;100.00;100020.30;104329;1260;59764;-57
2023/12/26 04:12:03;;;;;;;1.10;0.30;;;;;;;3.53;100.00;100021.20;104244;1259;71871;-56
2023/12/26 04:14:30;;;;;;;1.80;0.40;;;;;;;3.53;100.00;100022.27;104104;1260;65880;-56
2023/12/26 04:16:58;;;;;;;1.40;0.50;;;;;;;3.54;100.00;100024.93;104163;1259;72571;-58
2023/12/26 04:19:25;;;;;;;1.10;0.30;;;;;;;3.56;100.00;100025.27;104377;1266;59740;-56
2023/12/26 04:21:53;;;;;;;2.20;0.40;;;;;;;3.57;100.00;100022.91;108445;1259;58538;-59
2023/12/26 04:24:20;;;;;;;1.30;0.40;;;;;;;3.58;100.00;100023.23;108492;1258;73095;-59
2023/12/26 04:26:47;;;;;;;0.80;0.40;;;;;;;3.59;100.00;100028.20;108472;1260;68946;-54
2023/12/26 04:29:15;;;;;;;1.70;0.30;;;;;;;3.58;100.00;100018.64;108699;1259;72760;-56
2023/12/26 04:31:42;;;;;;;3.50;0.50;;;;;;;3.56;100.00;100018.52;108480;1259;59295;-56
2023/12/26 04:34:09;;;;;;;1.50;0.30;;;;;;;3.54;100.00;100017.66;108504;1261;58856;-59
2023/12/26 04:36:37;;;;;;;3.00;0.50;;;;;;;3.53;100.00;100016.42;108498;1259;71859;-57
2023/12/26 04:39:05;;;;;;;1.80;0.40;;;;;;;3.53;100.00;100018.20;104405;1260;66781;-55
2023/12/26 04:41:32;;;;;;;2.70;0.50;;;;;;;3.56;100.00;100019.40;104308;1260;70135;-55
2023/12/26 04:44:00;;;;;;;1.50;0.40;;;;;;;3.58;100.00;100022.71;104512;1264;59872;-56
2023/12/26 04:46:27;;;;;;;2.90;0.50;;;;;;;3.61;100.00;100029.60;104375;1264;60002;-55
2023/12/26 04:48:55;;;;;;;4.00;0.50;;;;;;;3.62;100.00;100038.10;104444;1260;73090;-56
2023/12/26 04:51:23;;;;;;;2.90;0.50;;;;;;;3.62;100.00;100041.11;106745;1259;66975;-58
2023/12/26 04:53:51;;;;;;;3.50;0.50;;;;;;;3.61;100.00;100049.13;104233;1259;71461;-55
2023/12/26 04:56:19;;;;;;;3.30;0.50;;;;;;;3.59;100.00;100048.44;104546;1261;59637;-53
2023/12/26 04:58:47;;;;;;;6.30;1.00;;;;;;;3.56;100.00;100050.63;104278;1262;60648;-57
2023/12/26 05:01:15;;;;;;;5.60;0.50;;;;;;;3.53;100.00;100048.89;104474;1260;73115;-53
2023/12/26 05:03:43;;;;;;;3.00;0.60;;;;;;;3.49;100.00;100046.29;104401;1261;64711;-53
2023/12/26 05:06:11;;;;;;;5.30;0.80;;;;;;;3.45;100.00;100048.30;105631;1261;72493;-53
2023/12/26 05:08:40;;;;;;;2.50;0.40;;;;;;;3.43;100.00;100052.58;106978;1264;60873;-55
2023/12/26 05:11:07;;;;;;;3.30;0.40;;;;;;;3.42;100.00;100056.50;104932;1259;59653;-57
2023/12/26 05:13:36;;;;;;;3.10;0.30;;;;;;;3.42;100.00;100062.70;104877;1259;72509;-57
2023/12/26 05:16:04;;;;;;;2.20;0.40;;;;;;;3.44;100.00;100068.54;104345;1263;67866;-55
2023/12/26 05:18:31;;;;;;;2.90;0.40;;;;;;;3.48;100.00;100072.94;104423;1260;72431;-55
2023/12/26 05:20:59;;;;;;;1.60;0.40;;;;;;;3.50;100.00;100078.73;104748;1260;59713;-55
2023/12/26 05:23:28;;;;;;;3.10;0.60;;;;;;;3.49;100.00;100074.85;105652;1264;59621;-55
2023/12/26 05:25:58;;;;;;;4.80;1.50;;;;;;;3.48;100.00;100082.69;104358;1261;73084;-56
2023/12/26 05:28:37;;;;;;;4.80;0.60;;;;;;;3.45;100.00;100093.38;105089;1261;67742;-54
2023/12/26 05:31:05;;;;;;;9.70;0.50;;;;;;;3.42;100.00;100082.92;104610;1262;71251;-54
2023/12/26 05:33:32;;;;;;;2.50;0.50;;;;;;;3.40;100.00;100079.23;104740;1258;59768;-53
2023/12/26 05:36:02;;;;;;;2.00;0.40;;;;;;;3.37;100.00;100082.31;104377;1262;59601;-59
2023/12/26 05:38:30;;;;;;;5.40;0.50;;;;;;;3.35;100.00;100083.56;105148;1258;71837;-56
2023/12/26 05:40:57;;;;;;;3.40;0.50;;;;;;;3.35;100.00;100078.77;104260;1259;67095;-56
2023/12/26 05:43:25;;;;;;;8.20;0.50;;;;;;;3.35;100.00;100085.88;104420;1262;71890;-56
2023/12/26 05:45:52;;;;;;;1.60;0.40;;;;;;;3.36;100.00;100085.33;104974;1264;59510;-57
2023/12/26 05:48:19;;;;;;;3.50;0.50;;;;;;;3.35;100.00;100087.83;104351;1258;61050;-56
2023/12/26 05:50:47;;;;;;;3.90;0.70;;;;;;;3.35;100.00;100092.61;104697;1259;71858;-55
2023/12/26 05:53:15;;;;;;;5.80;0.50;;;;;;;3.34;100.00;100098.30;104577;1262;67821;-58
2023/12/26 05:55:42;;;;;;;5.80;2.00;;;;;;;3.33;100.00;100099.91;104464;1261;72736;-57
2023/12/26 05:58:10;;;;;;;7.80;0.80;;;;;;;3.30;100.00;100101.03;104557;1264;59802;-60
2023/12/26 06:00:37;;;;;;;8.10;0.90;;;;;;;3.27;100.00;100104.08;104305;1258;60246;-53
2023/12/26 06:03:05;;;;;;;5.50;0.70;;;;;;;3.23;100.00;100101.80;104845;1258;74400;-54
2023/12/26 06:05:32;;;;;;;4.00;0.50;;;;;;;3.20;100.00;100103.47;104709;1260;67930;-52
2023/12/26 06:08:00;;;;;;;4.50;0.60;;;;;;;3.17;100.00;100103.14;104274;1259;73190;-59
2023/12/26 06:10:28;;;;;;;3.90;0.50;;;;;;;3.16;100.00;100100.31;104474;1259;61424;-55
2023/12/26 06:12:55;;;;;;;3.00;0.60;;;;;;;3.15;100.00;100094.65;104308;1264;59552;-57
2023/12/26 06:15:24;;;;;;;3.60;0.40;;;;;;;3.17;100.00;100101.89;104430;1260;71625;-57
2023/12/26 06:17:51;;;;;;;5.00;0.50;;;;;;;3.20;100.00;100110.73;104777;1259;65691;-56
2023/12/26 06:20:22;;;;;;;3.30;0.60;;;;;;;3.24;100.00;100120.05;104391;1264;72912;-56
2023/12/26 06:22:50;;;;;;;2.10;0.50;;;;;;;3.29;100.00;100132.96;104510;1259;62986;-55
2023/12/26 06:25:17;;;;;;;3.10;0.50;;;;;;;3.33;100.00;100140.00;104486;1257;59993;-55
2023/12/26 06:27:45;;;;;;;3.40;0.60;;;;;;;3.34;100.00;100139.63;104313;1264;75363;-58
2023/12/26 06:30:12;;;;;;;10.10;1.30;;;;;;;3.36;100.00;100142.45;104203;1259;66344;-56
2023/12/26 06:32:40;;;;;;;4.00;1.00;;;;;;;3.36;100.00;100147.77;104567;1254;71395;-56
2023/12/26 06:35:09;;;;;;;4.10;0.50;;;;;;;3.36;100.00;100147.05;104888;1256;59771;-57
2023/12/26 06:37:36;;;;;;;2.80;0.40;;;;;;;3.36;100.00;100149.02;104770;1254;60082;-57
2023/12/26 06:40:04;;;;;;;2.80;0.40;;;;;;;3.37;100.00;100148.48;104622;1262;72556;-54
2023/12/26 06:42:31;;;;;;;4.20;0.50;;;;;;;3.39;100.00;100155.02;104631;1254;66838;-59
2023/12/26 06:44:58;;;;;;;5.10;0.50;;;;;;;3.42;100.00;100160.46;104302;1260;72773;-56
2023/12/26 06:47:26;;;;;;;2.50;0.50;;;;;;;3.46;100.00;100165.02;104808;1256;60539;-55
2023/12/26 06:49:53;;;;;;;3.20;0.60;;;;;;;3.50;100.00;100171.90;104848;1254;60528;-55
2023/12/26 06:52:20;;;;;;;3.20;0.90;;;;;;;3.52;100.00;100169.38;104617;1256;73911;-60
2023/12/26 06:54:48;;;;;;;6.20;0.50;;;;;;;3.52;100.00;100171.15;104524;1260;67770;-54
2023/12/26 06:57:16;;;;;;;6.70;0.50;;;;;;;3.52;100.00;100175.23;106381;1254;71453;-58
2023/12/26 06:59:46;;;;;;;5.20;0.50;;;;;;;3.51;100.00;100176.31;104465;1257;62071;-58
2023/12/26 07:02:13;;;;;;;2.00;0.40;;;;;;;3.51;100.00;100180.91;108785;1256;58849;-55
2023/12/26 07:04:45;;;;;;;1.90;0.50;;;;;;;3.53;100.00;100185.34;106835;1260;74269;-53
2023/12/26 07:07:13;;;;;;;2.10;0.40;;;;;;;3.55;100.00;100195.09;104713;1254;65853;-54
2023/12/26 07:09:40;;;;;;;4.00;0.70;;;;;;;3.57;100.00;100189.18;104705;1253;73119;-54
2023/12/26 07:12:07;;;;;;;5.70;0.60;;;;;;;3.61;100.00;100195.70;104509;1254;60601;-54
2023/12/26 07:14:35;;;;;;;6.70;0.60;;;;;;;3.66;100.00;100207.17;104738;1254;60479;-55
2023/12/26 07:17:03;;;;;;;2.80;0.70;;;;;;;3.70;100.00;100213.70;104659;1255;72866;-53
2023/12/26 07:19:31;;;;;;;3.40;0.50;;;;;;;3.72;100.00;100220.05;104588;1254;67309;-54
2023/12/26 07:21:58;;;;;;;3.90;0.50;;;;;;;3.74;100.00;100222.52;104617;1255;73731;-54
2023/12/26 07:24:26;;;;;;;3.60;0.50;;;;;;;3.76;100.00;100224.07;104579;1255;60422;-58
2023/12/26 07:26:53;;;;;;;6.00;0.70;;;;;;;3.78;100.00;100222.81;104648;1260;60828;-54
2023/12/26 07:29:23;;;;;;;4.10;0.60;;;;;;;3.82;100.00;100223.85;104594;1254;72673;-57
2023/12/26 07:31:52;;;;;;;1.80;0.50;;;;;;;3.85;100.00;100229.64;104698;1258;65537;-53
2023/12/26 07:34:19;;;;;;;2.30;0.50;;;;;;;3.89;100.00;100236.88;104843;1255;72646;-52
2023/12/26 07:36:47;;;;;;;3.10;0.60;;;;;;;3.94;100.00;100247.80;108844;1255;58565;-57
2023/12/26 07:39:14;;;;;;;4.80;0.60;;;;;;;3.99;100.00;100249.89;108787;1254;58818;-57
2023/12/26 07:41:41;;;;;;;2.60;0.50;;;;;;;4.04;100.00;100257.08;108875;1254;72643;-56
2023/12/26 07:44:09;;;;;;;3.40;0.60;;;;;;;4.09;100.00;100258.43;109003;1254;66864;-54
2023/12/26 07:46:36;;;;;;;3.90;0.40;;;;;;;4.13;100.00;100261.05;105749;1254;71463;-54
2023/12/26 07:49:04;;;;;;;3.20;0.40;;;;;;;4.16;100.00;100265.27;104648;1256;60600;-54
2023/12/26 07:51:31;;;;;;;5.40;0.60;;;;;;;4.18;100.00;100280.32;104484;1260;60451;-55
2023/12/26 07:54:01;;;;;;;3.60;0.40;;;;;;;4.21;100.00;100283.84;104700;1256;73084;-55
2023/12/26 07:56:29;;;;;;;3.40;0.50;;;;;;;4.24;100.00;100293.39;104586;1255;67794;-55
2023/12/26 07:58:56;;;;;;;1.50;0.40;;;;;;;4.28;100.00;100297.77;104524;1254;72804;-57
2023/12/26 08:01:26;;;;;;;4.80;0.40;;;;;;;4.34;100.00;100302.14;106815;1255;59623;-56
2023/12/26 08:03:53;;;;;;;2.70;0.50;;;;;;;4.40;100.00;100315.55;104752;1258;60468;-56
2023/12/26 08:06:23;;;;;;;1.90;0.40;;;;;;;4.48;100.00;100322.55;105758;1254;73823;-56
2023/12/26 08:08:51;;;;;;;3.40;0.40;;;;;;;4.54;100.00;100329.73;104755;1257;67090;-57
2023/12/26 08:11:22;;;;;;;2.00;0.50;;;;;;;4.60;100.00;100330.36;104660;1254;72694;-55
2023/12/26 08:13:49;;;;;;;4.00;0.50;;;;;;;4.64;100.00;100334.20;104696;1254;60527;-56
2023/12/26 08:16:16;;;;;;;4.70;0.90;;;;;;;4.67;100.00;100332.22;104861;1254;60620;-55
2023/12/26 08:18:44;;;;;;;5.80;0.70;;;;;;;4.70;100.00;100331.27;104745;1255;73034;-54
2023/12/26 08:21:11;;;;;;;4.10;0.50;;;;;;;4.72;100.00;100331.96;104822;1256;66763;-57
2023/12/26 08:23:38;;;;;;;4.90;0.60;;;;;;;4.74;100.00;100332.46;104309;1255;72515;-58
2023/12/26 08:26:09;;;;;;;5.20;0.50;;;;;;;4.75;100.00;100334.94;104627;1259;61464;-55
2023/12/26 08:28:36;;;;;;;4.50;0.50;;;;;;;4.77;100.00;100341.64;104464;1256;60617;-54
2023/12/26 08:31:04;;;;;;;2.30;0.50;;;;;;;4.81;100.00;100344.27;104571;1254;72631;-59
2023/12/26 08:33:31;;;;;;;5.80;1.00;;;;;;;4.84;100.00;100345.45;105127;1255;69701;-55
2023/12/26 08:35:59;;;;;;;4.00;0.40;;;;;;;4.88;100.00;100346.81;104935;1258;71225;-56
2023/12/26 08:38:28;;;;;;;4.90;0.60;;;;;;;4.96;100.00;100352.57;104706;1254;60526;-55
2023/12/26 08:40:56;;;;;;;3.40;0.40;;;;;;;5.03;100.00;100361.88;104561;1255;60575;-56
2023/12/26 08:43:23;;;;;;;4.90;0.70;;;;;;;5.11;100.00;100368.16;104714;1253;74410;-54
2023/12/26 08:45:50;;;;;;;4.20;0.50;;;;;;;5.18;100.00;100379.42;104738;1254;65853;-56
2023/12/26 08:48:18;;;;;;;2.50;0.50;;;;;;;5.23;100.00;100378.61;104545;1256;72724;-56
2023/12/26 08:50:45;;;;;;;2.20;0.50;;;;;;;5.26;100.00;100384.98;104810;1259;60548;-55
2023/12/26 08:53:13;;;;;;;4.40;0.50;;;;;;;5.29;100.00;100394.36;104815;1254;60993;-55
2023/12/26 08:55:41;;;;;;;7.90;0.60;;;;;;;5.29;100.00;100400.04;104902;1254;72652;-55
2023/12/26 08:58:09;;;;;;;4.30;0.60;;;;;;;5.29;100.00;100402.36;104643;1254;67145;-59
2023/12/26 09:00:36;;;;;;;5.30;0.80;;;;;;;5.30;100.00;100409.81;104507;1256;71749;-57
2023/12/26 09:03:04;;;;;;;3.70;0.50;;;;;;;5.31;100.00;100413.00;104659;1255;60510;-55
2023/12/26 09:05:34;;;;;;;4.30;0.40;;;;;;;5.31;100.00;100418.89;104589;1260;59274;-57
2023/12/26 09:08:01;;;;;;;3.00;0.70;;;;;;;5.32;100.00;100422.96;104734;1258;73755;-55
2023/12/26 09:10:28;;;;;;;4.30;0.60;;;;;;;5.34;100.00;100427.03;104574;1254;65762;-57
2023/12/26 09:12:56;;;;;;;1.60;0.40;;;;;;;5.37;100.00;100438.52;104471;1256;72838;-56
2023/12/26 09:15:24;;;;;;;3.60;0.60;;;;;;;5.43;100.00;100446.10;104763;1254;61131;-56
2023/12/26 09:17:51;;;;;;;6.30;0.60;;;;;;;5.50;100.00;100452.20;104724;1255;60323;-56
2023/12/26 09:20:19;;;;;;;5.00;0.50;;;;;;;5.59;100.00;100456.15;104817;1257;73846;-57
2023/12/26 09:22:46;;;;;;;5.90;0.60;;;;;;;5.68;100.00;100457.80;104964;1258;67394;-56
2023/12/26 09:25:14;;;;;;;4.70;0.50;;;;;;;5.74;100.00;100465.16;104665;1260;72888;-54
2023/12/26 09:27:42;;;;;;;1.50;0.40;;;;;;;5.80;100.00;100481.08;104923;1258;60557;-53
2023/12/26 09:30:13;;;;;;;3.10;0.60;;;;;;;5.85;100.00;100488.12;105094;1255;61949;-55
2023/12/26 09:32:41;;;;;;;3.90;0.60;;;;;;;5.92;100.00;100495.15;105069;1255;72628;-53
2023/12/26 09:35:08;;;;;;;4.60;0.60;;;;;;;5.98;100.00;100497.90;104666;1254;65482;-52
2023/12/26 09:37:38;;;;;;;3.60;0.50;;;;;;;6.02;100.00;100507.09;105001;1256;73190;-53
2023/12/26 09:40:08;;;;;;;3.60;0.60;;;;;;;6.06;100.00;100517.52;105993;1256;60443;-57
2023/12/26 09:42:35;;;;;;;2.00;0.40;;;;;;;6.10;100.00;100517.83;104972;1261;60632;-56
2023/12/26 09:45:03;;;;;;;6.60;0.70;;;;;;;6.13;100.00;100518.81;104809;1260;73666;-54
2023/12/26 09:47:31;;;;;;;4.50;0.50;;;;;;;6.15;100.00;100516.83;104834;1256;65426;-57
2023/12/26 09:49:59;;;;;;;2.80;0.50;;;;;;;6.16;100.00;100520.02;105054;1254;71475;-58
2023/12/26 09:52:27;;;;;;;2.60;0.60;;;;;;;6.18;100.00;100525.52;104859;1254;60421;-57
2023/12/26 09:54:54;;;;;;;1.50;0.40;;;;;;;6.21;100.00;100528.13;104891;1256;60508;-55
2023/12/26 09:57:22;;;;;;;4.20;0.60;;;;;;;6.22;100.00;100536.66;104784;1261;74489;-54
2023/12/26 09:59:50;;;;;;;2.50;0.40;;;;;;;6.23;100.00;100543.05;104883;1261;65472;-55
2023/12/26 10:02:18;;;;;;;2.10;0.40;;;;;;;6.27;100.00;100547.27;104905;1261;72672;-53
2023/12/26 10:04:45;;;;;;;3.20;0.50;;;;;;;6.29;100.00;100558.27;105007;1254;60418;-60
2023/12/26 10:07:14;;;;;;;3.80;0.50;;;;;;;6.32;100.00;100565.00;104851;1259;60822;-57
2023/12/26 10:09:42;;;;;;;3.10;0.30;;;;;;;6.34;100.00;100565.67;105469;1255;72625;-56
2023/12/26 10:12:09;;;;;;;2.70;0.40;;;;;;;6.34;100.00;100568.88;104790;1263;65953;-55
2023/12/26 10:14:37;;;;;;;3.50;0.40;;;;;;;6.36;100.00;100570.10;104890;1256;72467;-56
2023/12/26 10:17:06;;;;;;;3.10;0.50;;;;;;;6.36;100.00;100571.16;104595;1256;60938;-55
2023/12/26 10:19:33;;;;;;;2.50;0.30;;;;;;;6.35;100.00;100577.95;104584;1260;60465;-58
2023/12/26 10:22:02;;;;;;;2.30;0.60;;;;;;;6.33;100.00;100572.47;104743;1255;72629;-52
2023/12/26 10:24:30;;;;;;;3.80;0.40;;;;;;;6.31;100.00;100576.23;106682;1255;68568;-55
2023/12/26 10:26:58;;;;;;;4.10;0.50;;;;;;;6.32;100.00;100582.81;105113;1256;71297;-53
2023/12/26 10:29:25;;;;;;;3.10;0.50;;;;;;;6.32;100.00;100582.99;104968;1256;60550;-54
2023/12/26 10:31:53;;;;;;;6.70;0.60;;;;;;;6.33;100.00;100574.24;104952;1259;60362;-55
2023/12/26 10:34:20;;;;;;;7.20;0.70;;;;;;;6.35;100.00;100563.88;104936;1254;73982;-55
2023/12/26 10:36:49;;;;;;;3.30;0.50;;;;;;;6.38;100.00;100552.77;108499;1255;66132;-53
2023/12/26 10:39:17;;;;;;;2.90;0.40;;;;;;;6.42;100.00;100555.90;105546;1255;72699;-56
2023/12/26 10:41:46;;;;;;;4.20;0.40;;;;;;;6.47;100.00;100555.27;106863;1256;59592;-55
2023/12/26 10:44:15;;;;;;;3.30;0.50;;;;;;;6.50;100.00;100553.06;106416;1255;60547;-54
2023/12/26 10:46:43;;;;;;;3.80;0.70;;;;;;;6.54;100.00;100551.77;105070;1256;73892;-54
2023/12/26 10:49:13;;;;;;;1.80;0.50;;;;;;;6.56;100.00;100548.16;108793;1254;65393;-56
2023/12/26 10:51:44;;;;;;;5.30;0.50;;;;;;;6.58;100.00;100552.73;105063;1258;71322;-56
2023/12/26 10:54:14;;;;;;;2.50;0.50;;;;;;;6.59;100.00;100552.90;104932;1256;60426;-57
2023/12/26 10:56:42;;;;;;;3.80;0.40;;;;;;;6.61;100.00;100553.77;105480;1255;60553;-52
2023/12/26 10:59:10;;;;;;;3.80;0.50;;;;;;;6.62;100.00;100551.24;106318;1259;73948;-54
2023/12/26 11:01:37;;;;;;;1.90;0.50;;;;;;;6.65;100.00;100552.77;104720;1256;69277;-52
2023/12/26 11:04:04;;;;;;;1.60;0.50;;;;;;;6.69;100.00;100556.28;104731;1256;71461;-54
2023/12/26 11:06:32;;;;;;;5.70;0.50;;;;;;;6.73;100.00;100566.89;108855;1257;59146;-55
2023/12/26 11:08:59;;;;;;;3.90;0.60;;;;;;;6.79;100.00;100573.55;105164;1255;60558;-59
2023/12/26 11:11:26;;;;;;;3.60;0.60;;;;;;;6.86;100.00;100574.48;104770;1256;73397;-56
2023/12/26 11:13:54;;;;;;;2.30;0.50;;;;;;;6.91;100.00;100582.58;104758;1254;67420;-53
2023/12/26 11:16:21;;;;;;;4.30;0.60;;;;;;;6.97;100.00;100578.01;104738;1255;72467;-55
2023/12/26 11:18:48;;;;;;;5.00;0.70;;;;;;;7.02;100.00;100582.36;104619;1256;60845;-54
2023/12/26 11:21:16;;;;;;;4.00;0.70;;;;;;;7.07;100.00;100586.90;104672;1260;60465;-56
2023/12/26 11:23:43;;;;;;;3.70;0.60;;;;;;;7.11;100.00;100580.94;104943;1254;72659;-52